createdAt,value
2022-08-10T00:00:39.411Z,0.00
2022-08-10T00:01:39.477Z,0.00
2022-08-10T00:02:39.384Z,0.00
2022-08-10T00:03:39.376Z,0.00
2022-08-10T00:04:39.359Z,0.00
2022-08-10T00:05:43.718Z,0.00
2022-08-10T00:06:39.339Z,0.00
2022-08-10T00:07:39.317Z,0.00
2022-08-10T00:08:39.313Z,0.00
2022-08-10T00:09:50.758Z,0.00
2022-08-10T00:10:39.279Z,0.00
2022-08-10T00:11:39.264Z,0.00
2022-08-10T00:12:53.480Z,0.00
2022-08-10T00:13:39.236Z,0.00
2022-08-10T00:14:39.230Z,0.00
2022-08-10T00:15:52.463Z,0.00
2022-08-10T00:16:39.204Z,0.00
2022-08-10T00:17:39.188Z,0.00
2022-08-10T00:18:39.177Z,0.00
2022-08-10T00:20:02.477Z,0.00
2022-08-10T00:20:39.147Z,0.00
2022-08-10T00:21:39.129Z,0.00
2022-08-10T00:22:53.030Z,0.00
2022-08-10T00:23:39.100Z,0.00
2022-08-10T00:24:43.050Z,0.00
2022-08-10T00:25:39.079Z,0.00
2022-08-10T00:27:51.630Z,0.00
2022-08-10T00:28:00.949Z,0.00
2022-08-10T00:28:39.040Z,0.00
2022-08-10T00:29:39.025Z,0.00
2022-08-10T00:30:39.006Z,0.00
2022-08-10T00:31:58.078Z,0.00
2022-08-10T00:32:38.982Z,0.00
2022-08-10T00:33:38.969Z,0.00
2022-08-10T00:34:38.957Z,0.00
2022-08-10T00:35:38.938Z,0.00
2022-08-10T00:36:38.926Z,0.00
2022-08-10T00:37:38.910Z,0.00
2022-08-10T00:38:38.907Z,0.00
2022-08-10T00:39:39.295Z,0.00
2022-08-10T00:40:38.879Z,0.00
2022-08-10T00:41:38.866Z,0.00
2022-08-10T00:42:38.846Z,0.00
2022-08-10T00:43:38.932Z,0.00
2022-08-10T00:44:38.823Z,0.00
2022-08-10T00:45:38.807Z,0.00
2022-08-10T00:46:38.800Z,0.00
2022-08-10T00:47:38.780Z,0.00
2022-08-10T00:48:38.773Z,0.00
2022-08-10T00:49:38.754Z,0.00
2022-08-10T00:50:38.745Z,0.00
2022-08-10T00:51:48.576Z,0.00
2022-08-10T00:52:38.715Z,0.00
2022-08-10T00:53:38.703Z,0.00
2022-08-10T00:54:38.689Z,0.00
2022-08-10T00:56:35.146Z,0.00
2022-08-10T00:57:15.872Z,0.00
2022-08-10T00:57:38.640Z,0.00
2022-08-10T00:58:39.406Z,0.00
2022-08-10T00:59:38.612Z,0.00
2022-08-10T01:00:39.625Z,0.00
2022-08-10T01:02:10.045Z,0.00
2022-08-10T01:02:39.002Z,0.00
2022-08-10T01:04:40.326Z,0.00
2022-08-10T01:05:00.064Z,0.00
2022-08-10T01:05:51.606Z,0.00
2022-08-10T01:06:38.535Z,0.00
2022-08-10T01:07:38.509Z,0.00
2022-08-10T01:08:38.501Z,0.00
2022-08-10T01:09:38.487Z,0.00
2022-08-10T01:10:38.470Z,0.00
2022-08-10T01:12:34.129Z,0.00
2022-08-10T01:12:41.578Z,0.00
2022-08-10T01:13:38.429Z,0.00
2022-08-10T01:14:38.422Z,0.00
2022-08-10T01:15:38.403Z,0.00
2022-08-10T01:16:38.390Z,0.00
2022-08-10T01:17:50.795Z,0.00
2022-08-10T01:18:39.388Z,0.00
2022-08-10T01:19:38.346Z,0.00
2022-08-10T01:20:38.340Z,0.00
2022-08-10T01:21:38.322Z,0.00
2022-08-10T01:22:38.320Z,0.00
2022-08-10T01:23:38.306Z,0.00
2022-08-10T01:24:38.286Z,0.00
2022-08-10T01:26:12.372Z,0.00
2022-08-10T01:26:40.811Z,0.00
2022-08-10T01:27:38.237Z,0.00
2022-08-10T01:28:38.230Z,0.00
2022-08-10T01:29:38.210Z,0.00
2022-08-10T01:30:38.201Z,0.00
2022-08-10T01:31:38.180Z,0.00
2022-08-10T01:32:38.174Z,0.00
2022-08-10T01:33:58.393Z,0.00
2022-08-10T01:34:38.149Z,0.00
2022-08-10T01:35:38.138Z,0.00
2022-08-10T01:36:38.127Z,0.00
2022-08-10T01:37:38.107Z,0.00
2022-08-10T01:38:38.097Z,0.00
2022-08-10T01:39:38.188Z,0.00
2022-08-10T01:40:38.074Z,0.00
2022-08-10T01:41:45.584Z,0.00
2022-08-10T01:42:38.039Z,0.00
2022-08-10T01:43:38.022Z,0.00
2022-08-10T01:44:38.015Z,0.00
2022-08-10T01:45:44.918Z,0.00
2022-08-10T01:46:37.988Z,0.00
2022-08-10T01:47:37.972Z,0.00
2022-08-10T01:48:37.960Z,0.00
2022-08-10T01:49:37.952Z,0.00
2022-08-10T01:50:58.939Z,0.00
2022-08-10T01:51:37.916Z,0.00
2022-08-10T01:52:37.911Z,0.00
2022-08-10T01:53:40.877Z,0.00
2022-08-10T01:54:37.876Z,0.00
2022-08-10T01:55:37.864Z,0.00
2022-08-10T01:56:37.868Z,0.00
2022-08-10T01:57:37.831Z,0.00
2022-08-10T01:58:37.827Z,0.00
2022-08-10T01:59:37.812Z,0.00
2022-08-10T02:00:37.800Z,0.00
2022-08-10T02:01:37.890Z,0.00
2022-08-10T02:02:37.793Z,0.00
2022-08-10T02:04:03.913Z,0.00
2022-08-10T02:04:37.742Z,0.00
2022-08-10T02:05:37.720Z,0.00
2022-08-10T02:06:37.716Z,0.00
2022-08-10T02:07:38.778Z,0.00
2022-08-10T02:08:37.691Z,0.00
2022-08-10T02:09:37.677Z,0.00
2022-08-10T02:10:37.664Z,0.00
2022-08-10T02:12:05.737Z,0.00
2022-08-10T02:12:38.664Z,0.00
2022-08-10T02:13:37.618Z,0.00
2022-08-10T02:14:37.604Z,0.00
2022-08-10T02:15:37.592Z,0.00
2022-08-10T02:16:37.579Z,0.00
2022-08-10T02:18:00.083Z,0.00
2022-08-10T02:18:38.570Z,0.00
2022-08-10T02:19:37.544Z,0.00
2022-08-10T02:20:37.524Z,0.00
2022-08-10T02:21:37.513Z,0.00
2022-08-10T02:22:39.069Z,0.00
2022-08-10T02:23:37.484Z,0.00
2022-08-10T02:24:37.466Z,0.00
2022-08-10T02:25:41.848Z,0.00
2022-08-10T02:26:37.440Z,0.00
2022-08-10T02:27:37.434Z,0.00
2022-08-10T02:28:37.413Z,0.00
2022-08-10T02:29:37.402Z,0.00
2022-08-10T02:30:37.383Z,0.00
2022-08-10T02:31:37.393Z,0.00
2022-08-10T02:32:38.047Z,0.00
2022-08-10T02:33:38.119Z,0.00
2022-08-10T02:34:37.332Z,0.00
2022-08-10T02:35:54.743Z,0.00
2022-08-10T02:36:38.327Z,0.00
2022-08-10T02:37:37.298Z,0.00
2022-08-10T02:38:59.830Z,0.00
2022-08-10T02:39:38.347Z,0.00
2022-08-10T02:42:18.623Z,0.00
2022-08-10T02:45:14.337Z,0.00
2022-08-10T02:45:22.199Z,0.00
2022-08-10T02:45:23.047Z,0.00
2022-08-10T02:45:23.960Z,0.00
2022-08-10T02:45:37.693Z,0.00
2022-08-10T02:46:37.173Z,0.00
2022-08-10T02:47:50.927Z,0.00
2022-08-10T02:48:37.142Z,0.00
2022-08-10T02:49:37.129Z,0.00
2022-08-10T02:50:37.112Z,0.00
2022-08-10T02:52:06.782Z,0.00
2022-08-10T02:52:37.243Z,0.00
2022-08-10T02:53:56.010Z,0.00
2022-08-10T02:54:38.091Z,0.00
2022-08-10T02:55:37.054Z,0.00
2022-08-10T02:56:37.038Z,0.00
2022-08-10T02:57:37.027Z,0.00
2022-08-10T02:58:37.005Z,0.00
2022-08-10T02:59:38.636Z,0.00
2022-08-10T03:00:36.994Z,0.00
2022-08-10T03:01:37.058Z,0.00
2022-08-10T03:02:37.207Z,0.00
2022-08-10T03:03:36.945Z,0.00
2022-08-10T03:04:56.161Z,0.00
2022-08-10T03:05:36.913Z,0.00
2022-08-10T03:06:36.901Z,0.00
2022-08-10T03:07:43.196Z,0.00
2022-08-10T03:08:36.868Z,0.00
2022-08-10T03:09:36.862Z,0.00
2022-08-10T03:10:39.526Z,0.00
2022-08-10T03:12:35.228Z,0.00
2022-08-10T03:12:38.946Z,0.00
2022-08-10T03:13:36.803Z,0.00
2022-08-10T03:14:36.794Z,0.00
2022-08-10T03:15:36.773Z,0.00
2022-08-10T03:16:36.768Z,0.00
2022-08-10T03:17:36.754Z,0.00
2022-08-10T03:18:36.735Z,0.00
2022-08-10T03:20:34.033Z,0.00
2022-08-10T03:20:39.960Z,0.00
2022-08-10T03:21:36.693Z,0.00
2022-08-10T03:22:36.841Z,0.00
2022-08-10T03:23:36.676Z,0.00
2022-08-10T03:24:36.651Z,0.00
2022-08-10T03:25:36.647Z,0.00
2022-08-10T03:26:36.630Z,0.00
2022-08-10T03:27:36.610Z,0.00
2022-08-10T03:28:36.602Z,0.00
2022-08-10T03:30:23.342Z,0.00
2022-08-10T03:30:36.571Z,0.00
2022-08-10T03:31:36.563Z,0.00
2022-08-10T03:32:36.791Z,0.00
2022-08-10T03:33:36.538Z,0.00
2022-08-10T03:34:36.518Z,0.00
2022-08-10T03:35:36.503Z,0.00
2022-08-10T03:36:42.927Z,0.00
2022-08-10T03:37:36.480Z,0.00
2022-08-10T03:38:36.470Z,0.00
2022-08-10T03:39:36.527Z,4.00
2022-08-10T03:40:46.254Z,0.00
2022-08-10T03:41:36.419Z,0.00
2022-08-10T03:42:36.661Z,4.00
2022-08-10T03:43:36.399Z,0.00
2022-08-10T03:44:36.380Z,4.00
2022-08-10T03:45:55.136Z,4.00
2022-08-10T03:46:36.354Z,4.00
2022-08-10T03:47:36.356Z,4.00
2022-08-10T03:48:49.104Z,4.00
2022-08-10T03:49:36.324Z,8.00
2022-08-10T03:50:51.456Z,8.00
2022-08-10T03:51:36.293Z,12.00
2022-08-10T03:52:36.479Z,12.00
2022-08-10T03:54:04.908Z,16.00
2022-08-10T03:54:37.274Z,16.00
2022-08-10T03:56:30.182Z,20.00
2022-08-10T03:56:36.229Z,24.00
2022-08-10T03:57:36.212Z,24.00
2022-08-10T03:58:36.189Z,28.00
2022-08-10T03:59:36.198Z,36.00
2022-08-10T04:00:36.229Z,40.00
2022-08-10T04:02:46.666Z,44.00
2022-08-10T04:02:52.285Z,48.00
2022-08-10T04:03:36.136Z,56.00
2022-08-10T04:04:36.109Z,64.00
2022-08-10T04:05:38.134Z,72.00
2022-08-10T04:06:36.090Z,76.00
2022-08-10T04:07:36.073Z,84.00
2022-08-10T04:08:36.056Z,96.00
2022-08-10T04:09:54.169Z,108.00
2022-08-10T04:10:36.032Z,116.00
2022-08-10T04:11:36.012Z,124.00
2022-08-10T04:12:36.168Z,136.00
2022-08-10T04:13:35.994Z,152.00
2022-08-10T04:14:47.552Z,164.00
2022-08-10T04:15:36.991Z,176.00
2022-08-10T04:16:35.947Z,192.00
2022-08-10T04:18:04.121Z,204.00
2022-08-10T04:18:35.917Z,220.00
2022-08-10T04:19:35.910Z,240.00
2022-08-10T04:20:35.893Z,256.00
2022-08-10T04:21:35.886Z,276.00
2022-08-10T04:22:36.135Z,296.00
2022-08-10T04:23:35.867Z,320.00
2022-08-10T04:24:35.836Z,336.00
2022-08-10T04:25:35.843Z,356.00
2022-08-10T04:26:35.817Z,376.00
2022-08-10T04:27:35.801Z,396.00
2022-08-10T04:28:35.785Z,416.00
2022-08-10T04:29:35.778Z,436.00
2022-08-10T04:30:35.758Z,456.00
2022-08-10T04:31:35.743Z,472.00
2022-08-10T04:32:35.885Z,496.00
2022-08-10T04:33:35.721Z,516.00
2022-08-10T04:34:35.703Z,532.00
2022-08-10T04:35:35.694Z,556.00
2022-08-10T04:36:35.679Z,572.00
2022-08-10T04:37:35.664Z,592.00
2022-08-10T04:38:35.650Z,612.00
2022-08-10T04:39:35.767Z,636.00
2022-08-10T04:40:35.627Z,656.00
2022-08-10T04:41:35.622Z,680.00
2022-08-10T04:42:35.831Z,700.00
2022-08-10T04:43:35.588Z,724.00
2022-08-10T04:44:35.569Z,744.00
2022-08-10T04:45:49.407Z,768.00
2022-08-10T04:46:55.190Z,788.00
2022-08-10T04:47:51.169Z,808.00
2022-08-10T04:48:42.990Z,832.00
2022-08-10T04:49:54.930Z,848.00
2022-08-10T04:50:35.483Z,868.00
2022-08-10T04:51:35.472Z,884.00
2022-08-10T04:52:35.670Z,904.00
2022-08-10T04:54:04.057Z,912.00
2022-08-10T04:54:35.439Z,928.00
2022-08-10T04:55:35.426Z,944.00
2022-08-10T04:56:35.406Z,956.00
2022-08-10T04:57:35.399Z,972.00
2022-08-10T04:58:35.376Z,988.00
2022-08-10T04:59:35.366Z,1004.00
2022-08-10T05:00:35.374Z,1024.00
2022-08-10T05:02:21.847Z,1036.00
2022-08-10T05:02:36.378Z,1052.00
2022-08-10T05:03:35.313Z,1072.00
2022-08-10T05:04:39.372Z,1092.00
2022-08-10T05:05:35.293Z,1108.00
2022-08-10T05:06:35.269Z,1128.00
2022-08-10T05:07:54.255Z,1144.00
2022-08-10T05:08:35.241Z,1160.00
2022-08-10T05:10:01.273Z,1176.00
2022-08-10T05:10:35.211Z,1204.00
2022-08-10T05:11:35.206Z,1228.00
2022-08-10T05:12:35.904Z,1252.00
2022-08-10T05:13:35.178Z,1272.00
2022-08-10T05:14:35.163Z,1300.00
2022-08-10T05:15:35.151Z,1328.00
2022-08-10T05:16:35.132Z,1360.00
2022-08-10T05:17:35.122Z,1392.00
2022-08-10T05:18:35.108Z,1424.00
2022-08-10T05:20:02.111Z,1460.00
2022-08-10T05:20:35.088Z,1492.00
2022-08-10T05:22:04.661Z,1544.00
2022-08-10T05:22:35.494Z,1584.00
2022-08-10T05:23:35.045Z,1624.00
2022-08-10T05:24:35.027Z,1664.00
2022-08-10T05:25:37.302Z,1688.00
2022-08-10T05:26:39.153Z,1704.00
2022-08-10T05:27:34.986Z,1716.00
2022-08-10T05:28:35.322Z,1724.00
2022-08-10T05:29:34.958Z,1728.00
2022-08-10T05:30:34.946Z,1744.00
2022-08-10T05:31:34.933Z,1744.00
2022-08-10T05:32:56.599Z,1764.00
2022-08-10T05:33:34.908Z,1796.00
2022-08-10T05:34:34.888Z,1812.00
2022-08-10T05:35:57.508Z,1844.00
2022-08-10T05:36:35.881Z,1896.00
2022-08-10T05:38:09.627Z,1960.00
2022-08-10T05:38:34.832Z,2012.00
2022-08-10T05:39:34.901Z,2020.00
2022-08-10T05:40:34.809Z,2024.00
2022-08-10T05:41:34.800Z,2044.00
2022-08-10T05:42:35.061Z,2100.00
2022-08-10T05:43:34.773Z,2172.00
2022-08-10T05:44:34.761Z,2220.00
2022-08-10T05:45:34.748Z,2256.00
2022-08-10T05:46:34.727Z,2296.00
2022-08-10T05:48:54.138Z,2392.00
2022-08-10T05:48:54.415Z,2340.00
2022-08-10T05:49:34.691Z,2452.00
2022-08-10T05:50:34.693Z,2512.00
2022-08-10T05:51:34.659Z,2552.00
2022-08-10T05:52:34.807Z,2600.00
2022-08-10T05:54:03.570Z,2652.00
2022-08-10T05:54:34.613Z,2704.00
2022-08-10T05:55:34.607Z,2760.00
2022-08-10T05:56:53.809Z,2816.00
2022-08-10T05:57:34.586Z,2880.00
2022-08-10T05:58:34.566Z,2940.00
2022-08-10T06:00:33.200Z,3000.00
2022-08-10T06:00:41.849Z,3064.00
2022-08-10T06:01:35.604Z,3136.00
2022-08-10T06:02:35.615Z,3200.00
2022-08-10T06:03:34.503Z,3280.00
2022-08-10T06:04:34.483Z,3380.00
2022-08-10T06:05:34.475Z,3484.00
2022-08-10T06:06:34.458Z,3620.00
2022-08-10T06:07:34.606Z,3784.00
2022-08-10T06:08:34.428Z,3992.00
2022-08-10T06:09:34.420Z,4268.00
2022-08-10T06:10:35.598Z,5284.00
2022-08-10T06:12:24.408Z,7416.00
2022-08-10T06:12:54.173Z,10316.00
2022-08-10T06:13:53.678Z,11840.00
2022-08-10T06:14:34.352Z,11644.00
2022-08-10T06:15:50.300Z,11460.00
2022-08-10T06:16:34.941Z,11464.00
2022-08-10T06:17:34.309Z,11316.00
2022-08-10T06:18:34.292Z,9028.00
2022-08-10T06:19:34.286Z,5728.00
2022-08-10T06:20:36.283Z,4540.00
2022-08-10T06:21:34.254Z,4420.00
2022-08-10T06:22:34.243Z,4444.00
2022-08-10T06:23:34.230Z,4552.00
2022-08-10T06:24:34.216Z,4744.00
2022-08-10T06:26:34.191Z,5564.00
2022-08-10T06:27:34.907Z,7868.00
2022-08-10T06:28:34.161Z,13184.00
2022-08-10T06:29:34.155Z,17568.00
2022-08-10T06:30:34.131Z,18816.00
2022-08-10T06:31:47.510Z,19936.00
2022-08-10T06:32:35.327Z,19968.00
2022-08-10T06:33:34.096Z,20096.00
2022-08-10T06:34:34.078Z,19968.00
2022-08-10T06:35:34.061Z,19648.00
2022-08-10T06:36:34.279Z,19328.00
2022-08-10T06:37:34.035Z,18848.00
2022-08-10T06:38:34.038Z,17472.00
2022-08-10T06:39:35.637Z,13504.00
2022-08-10T06:40:34.005Z,9416.00
2022-08-10T06:42:15.309Z,10712.00
2022-08-10T06:42:34.138Z,12204.00
2022-08-10T06:43:33.964Z,11768.00
2022-08-10T06:44:33.952Z,12952.00
2022-08-10T06:45:34.615Z,11104.00
2022-08-10T06:46:33.918Z,6432.00
2022-08-10T06:47:33.910Z,4476.00
2022-08-10T06:48:33.899Z,4732.00
2022-08-10T06:49:33.874Z,5640.00
2022-08-10T06:50:44.644Z,7976.00
2022-08-10T06:51:33.850Z,14624.00
2022-08-10T06:52:33.982Z,20704.00
2022-08-10T06:53:52.941Z,20384.00
2022-08-10T06:54:34.830Z,16320.00
2022-08-10T06:55:50.128Z,8304.00
2022-08-10T06:56:37.825Z,3968.00
2022-08-10T06:57:33.780Z,3668.00
2022-08-10T06:58:33.763Z,3616.00
2022-08-10T06:59:33.752Z,3644.00
2022-08-10T07:00:34.233Z,3696.00
2022-08-10T07:01:33.815Z,3764.00
2022-08-10T07:02:33.715Z,3768.00
2022-08-10T07:03:33.693Z,3696.00
2022-08-10T07:04:33.947Z,3612.00
2022-08-10T07:05:33.671Z,3540.00
2022-08-10T07:06:33.661Z,3424.00
2022-08-10T07:07:33.754Z,3360.00
2022-08-10T07:08:33.630Z,3356.00
2022-08-10T07:09:33.616Z,3408.00
2022-08-10T07:10:41.376Z,3480.00
2022-08-10T07:11:33.582Z,3516.00
2022-08-10T07:12:33.758Z,3564.00
2022-08-10T07:14:17.478Z,3664.00
2022-08-10T07:14:34.570Z,3732.00
2022-08-10T07:15:59.641Z,3432.00
2022-08-10T07:16:33.519Z,3564.00
2022-08-10T07:17:37.315Z,3712.00
2022-08-10T07:18:33.499Z,3644.00
2022-08-10T07:19:33.481Z,3480.00
2022-08-10T07:20:33.478Z,3064.00
2022-08-10T07:21:33.459Z,3360.00
2022-08-10T07:23:01.206Z,3380.00
2022-08-10T07:23:57.559Z,3304.00
2022-08-10T07:24:33.429Z,3408.00
2022-08-10T07:25:33.402Z,3496.00
2022-08-10T07:26:33.393Z,3660.00
2022-08-10T07:27:58.804Z,3696.00
2022-08-10T07:28:33.370Z,3824.00
2022-08-10T07:29:53.220Z,3940.00
2022-08-10T07:30:33.343Z,4324.00
2022-08-10T07:31:55.866Z,4936.00
2022-08-10T07:32:33.309Z,5536.00
2022-08-10T07:33:33.294Z,19680.00
2022-08-10T07:34:33.291Z,27264.00
2022-08-10T07:35:41.891Z,31872.00
2022-08-10T07:36:34.286Z,38784.00
2022-08-10T07:37:33.242Z,38368.00
2022-08-10T07:38:33.230Z,43104.00
2022-08-10T07:40:01.938Z,41728.00
2022-08-10T07:40:33.314Z,40672.00
2022-08-10T07:41:33.187Z,42592.00
2022-08-10T07:42:33.236Z,47680.00
2022-08-10T07:43:33.162Z,50048.00
2022-08-10T07:44:33.157Z,50496.00
2022-08-10T07:45:33.146Z,49664.00
2022-08-10T07:46:33.127Z,47968.00
2022-08-10T07:47:46.104Z,47360.00
2022-08-10T07:48:34.123Z,48320.00
2022-08-10T07:49:33.087Z,48096.00
2022-08-10T07:50:35.344Z,48864.00
2022-08-10T07:51:33.060Z,49312.00
2022-08-10T07:52:33.045Z,47616.00
2022-08-10T07:53:33.026Z,48032.00
2022-08-10T07:54:33.018Z,47712.00
2022-08-10T07:56:04.830Z,48448.00
2022-08-10T07:56:48.522Z,49824.00
2022-08-10T07:57:34.825Z,50880.00
2022-08-10T07:58:33.219Z,51328.00
2022-08-10T07:59:32.960Z,51712.00
2022-08-10T08:00:32.946Z,51360.00
2022-08-10T08:01:33.058Z,50720.00
2022-08-10T08:02:35.733Z,51584.00
2022-08-10T08:03:32.904Z,51584.00
2022-08-10T08:04:32.896Z,51392.00
2022-08-10T08:05:58.173Z,51968.00
2022-08-10T08:06:32.867Z,51520.00
2022-08-10T08:07:32.851Z,50016.00
2022-08-10T08:08:32.839Z,48320.00
2022-08-10T08:09:32.824Z,48672.00
2022-08-10T08:10:32.819Z,48192.00
2022-08-10T08:11:32.804Z,45728.00
2022-08-10T08:12:37.228Z,45984.00
2022-08-10T08:13:32.775Z,47712.00
2022-08-10T08:14:32.770Z,49632.00
2022-08-10T08:16:16.797Z,49600.00
2022-08-10T08:16:32.744Z,51136.00
2022-08-10T08:17:35.631Z,53568.00
2022-08-10T08:18:32.718Z,54752.00
2022-08-10T08:19:37.103Z,56704.00
2022-08-10T08:20:32.689Z,59712.00
2022-08-10T08:24:08.725Z,60608.00
2022-08-10T08:24:09.031Z,58656.00
2022-08-10T08:24:10.168Z,59584.00
2022-08-10T08:24:34.587Z,59648.00
2022-08-10T08:25:32.633Z,61248.00
2022-08-10T08:26:32.621Z,64320.00
2022-08-10T08:27:32.604Z,62368.00
2022-08-10T08:28:32.592Z,60640.00
2022-08-10T08:29:32.584Z,58400.00
2022-08-10T08:30:32.562Z,56704.00
2022-08-10T08:31:32.550Z,60832.00
2022-08-10T08:32:32.634Z,63072.00
2022-08-10T08:33:41.603Z,65376.00
2022-08-10T08:34:33.538Z,64416.00
2022-08-10T08:35:32.505Z,65056.00
2022-08-10T08:36:32.494Z,66400.00
2022-08-10T08:38:29.875Z,65248.00
2022-08-10T08:38:35.144Z,66720.00
2022-08-10T08:39:32.504Z,65408.00
2022-08-10T08:40:32.454Z,66624.00
2022-08-10T08:41:32.435Z,63776.00
2022-08-10T08:42:32.492Z,64800.00
2022-08-10T08:43:32.501Z,67392.00
2022-08-10T08:44:34.897Z,68128.00
2022-08-10T08:45:32.386Z,67808.00
2022-08-10T08:46:32.380Z,68064.00
2022-08-10T08:48:03.924Z,67264.00
2022-08-10T08:48:32.351Z,67136.00
2022-08-10T08:50:04.578Z,69120.00
2022-08-10T08:50:32.330Z,67648.00
2022-08-10T08:52:17.276Z,71392.00
2022-08-10T08:52:33.321Z,68896.00
2022-08-10T08:54:02.400Z,69376.00
2022-08-10T08:54:32.996Z,69024.00
2022-08-10T08:56:03.116Z,69472.00
2022-08-10T08:56:32.260Z,66880.00
2022-08-10T08:57:50.264Z,67232.00
2022-08-10T08:58:32.231Z,64896.00
2022-08-10T08:59:32.215Z,67776.00
2022-08-10T09:00:32.408Z,72448.00
2022-08-10T09:01:40.452Z,74496.00
2022-08-10T09:02:32.183Z,73472.00
2022-08-10T09:03:32.168Z,73376.00
2022-08-10T09:04:32.152Z,73600.00
2022-08-10T09:05:32.145Z,74304.00
2022-08-10T09:06:33.155Z,75840.00
2022-08-10T09:08:00.394Z,73856.00
2022-08-10T09:08:32.108Z,70848.00
2022-08-10T09:09:32.097Z,58592.00
2022-08-10T09:10:37.179Z,27136.00
2022-08-10T09:11:32.074Z,13792.00
2022-08-10T09:12:32.128Z,11444.00
2022-08-10T09:13:32.050Z,10360.00
2022-08-10T09:14:32.046Z,9820.00
2022-08-10T09:15:40.524Z,9492.00
2022-08-10T09:16:32.019Z,9412.00
2022-08-10T09:17:32.007Z,9452.00
2022-08-10T09:18:31.996Z,9612.00
2022-08-10T09:19:35.517Z,9992.00
2022-08-10T09:20:31.972Z,10532.00
2022-08-10T09:21:31.962Z,11308.00
2022-08-10T09:22:31.944Z,12504.00
2022-08-10T09:24:01.971Z,14624.00
2022-08-10T09:24:31.923Z,20736.00
2022-08-10T09:25:31.919Z,41248.00
2022-08-10T09:26:31.913Z,64448.00
2022-08-10T09:27:33.033Z,71808.00
2022-08-10T09:28:31.885Z,75616.00
2022-08-10T09:29:31.863Z,77728.00
2022-08-10T09:30:35.721Z,71648.00
2022-08-10T09:31:32.870Z,71200.00
2022-08-10T09:36:17.345Z,70208.00
2022-08-10T09:36:22.958Z,74048.00
2022-08-10T09:36:24.067Z,73088.00
2022-08-10T09:36:29.438Z,74880.00
2022-08-10T09:36:33.371Z,70656.00
2022-08-10T09:37:39.484Z,68544.00
2022-08-10T09:38:32.786Z,72352.00
2022-08-10T09:40:12.315Z,73440.00
2022-08-10T09:40:57.990Z,74144.00
2022-08-10T09:41:32.868Z,72288.00
2022-08-10T09:42:31.717Z,64800.00
2022-08-10T09:43:31.713Z,64256.00
2022-08-10T09:44:31.699Z,65120.00
2022-08-10T09:45:31.683Z,71296.00
2022-08-10T09:46:31.677Z,73120.00
2022-08-10T09:48:00.824Z,77376.00
2022-08-10T09:48:31.659Z,76384.00
2022-08-10T09:49:53.842Z,76032.00
2022-08-10T09:50:55.742Z,75616.00
2022-08-10T09:51:45.389Z,73472.00
2022-08-10T09:52:32.671Z,74880.00
2022-08-10T09:53:31.596Z,76032.00
2022-08-10T09:54:31.589Z,77984.00
2022-08-10T09:56:17.325Z,79488.00
2022-08-10T09:56:31.565Z,77152.00
2022-08-10T09:57:43.928Z,75936.00
2022-08-10T09:58:32.567Z,75456.00
2022-08-10T10:00:00.651Z,74112.00
2022-08-10T10:00:32.555Z,80576.00
2022-08-10T10:01:57.911Z,83456.00
2022-08-10T10:02:31.493Z,82112.00
2022-08-10T10:03:31.602Z,85728.00
2022-08-10T10:04:31.474Z,83872.00
2022-08-10T10:05:31.464Z,86304.00
2022-08-10T10:06:31.456Z,87904.00
2022-08-10T10:07:31.435Z,89664.00
2022-08-10T10:08:31.435Z,91104.00
2022-08-10T10:09:31.412Z,86816.00
2022-08-10T10:10:31.415Z,88224.00
2022-08-10T10:11:31.391Z,88736.00
2022-08-10T10:12:31.394Z,89440.00
2022-08-10T10:14:01.465Z,85984.00
2022-08-10T10:14:32.384Z,90240.00
2022-08-10T10:15:31.353Z,89856.00
2022-08-10T10:16:31.342Z,84928.00
2022-08-10T10:17:31.324Z,85600.00
2022-08-10T10:18:31.314Z,81440.00
2022-08-10T10:19:31.307Z,80544.00
2022-08-10T10:20:31.363Z,81728.00
2022-08-10T10:21:54.421Z,81088.00
2022-08-10T10:22:32.302Z,87776.00
2022-08-10T10:23:31.256Z,87328.00
2022-08-10T10:24:31.262Z,85344.00
2022-08-10T10:25:50.359Z,85440.00
2022-08-10T10:26:32.251Z,87232.00
2022-08-10T10:27:31.213Z,87648.00
2022-08-10T10:28:57.613Z,87456.00
2022-08-10T10:29:56.546Z,90400.00
2022-08-10T10:30:32.213Z,89664.00
2022-08-10T10:31:31.202Z,91200.00
2022-08-10T10:32:37.148Z,91552.00
2022-08-10T10:33:31.150Z,93984.00
2022-08-10T10:34:31.141Z,95648.00
2022-08-10T10:35:31.125Z,88992.00
2022-08-10T10:36:31.114Z,88896.00
2022-08-10T10:38:10.419Z,94656.00
2022-08-10T10:38:31.086Z,88256.00
2022-08-10T10:39:31.148Z,85408.00
2022-08-10T10:40:31.075Z,94176.00
2022-08-10T10:41:31.057Z,88768.00
2022-08-10T10:42:44.810Z,90496.00
2022-08-10T10:43:31.036Z,95360.00
2022-08-10T10:44:31.020Z,90912.00
2022-08-10T10:45:31.017Z,88096.00
2022-08-10T10:46:31.002Z,92032.00
2022-08-10T10:47:30.994Z,92416.00
2022-08-10T10:48:30.975Z,93216.00
2022-08-10T10:49:30.969Z,92704.00
2022-08-10T10:50:30.955Z,88640.00
2022-08-10T10:51:30.946Z,86176.00
2022-08-10T10:52:30.933Z,92224.00
2022-08-10T10:53:30.923Z,91456.00
2022-08-10T10:54:30.914Z,91104.00
2022-08-10T10:55:30.902Z,93184.00
2022-08-10T10:56:30.886Z,88000.00
2022-08-10T10:57:58.184Z,89728.00
2022-08-10T10:58:31.892Z,89120.00
2022-08-10T10:59:53.834Z,79840.00
2022-08-10T11:00:31.863Z,80864.00
2022-08-10T11:01:30.859Z,71328.00
2022-08-10T11:02:30.819Z,59552.00
2022-08-10T11:03:30.810Z,68576.00
2022-08-10T11:04:30.799Z,71744.00
2022-08-10T11:05:30.802Z,82048.00
2022-08-10T11:06:40.148Z,91808.00
2022-08-10T11:07:31.746Z,94336.00
2022-08-10T11:08:30.758Z,91808.00
2022-08-10T11:10:08.850Z,86784.00
2022-08-10T11:10:34.699Z,91456.00
2022-08-10T11:12:01.884Z,85856.00
2022-08-10T11:12:30.703Z,82880.00
2022-08-10T11:14:24.715Z,90560.00
2022-08-10T11:14:30.768Z,85504.00
2022-08-10T11:15:30.671Z,82464.00
2022-08-10T11:16:30.662Z,87008.00
2022-08-10T11:17:30.652Z,82528.00
2022-08-10T11:18:30.647Z,75744.00
2022-08-10T11:20:02.453Z,77376.00
2022-08-10T11:20:31.644Z,72832.00
2022-08-10T11:21:30.619Z,75296.00
2022-08-10T11:22:30.594Z,74560.00
2022-08-10T11:23:31.607Z,76000.00
2022-08-10T11:24:42.846Z,84640.00
2022-08-10T11:25:30.564Z,82144.00
2022-08-10T11:26:30.559Z,80288.00
2022-08-10T11:27:30.556Z,66400.00
2022-08-10T11:28:30.545Z,31872.00
2022-08-10T11:29:30.528Z,18784.00
2022-08-10T11:30:30.520Z,18496.00
2022-08-10T11:31:30.513Z,22240.00
2022-08-10T11:32:30.497Z,21120.00
2022-08-10T11:33:30.843Z,18560.00
2022-08-10T11:34:47.351Z,18144.00
2022-08-10T11:35:34.618Z,17760.00
2022-08-10T11:36:30.454Z,18176.00
2022-08-10T11:37:30.444Z,18336.00
2022-08-10T11:38:47.182Z,17984.00
2022-08-10T11:39:30.494Z,17216.00
2022-08-10T11:40:30.411Z,15904.00
2022-08-10T11:42:09.752Z,14464.00
2022-08-10T11:42:35.718Z,12604.00
2022-08-10T11:43:30.391Z,11140.00
2022-08-10T11:44:31.026Z,10192.00
2022-08-10T11:45:30.372Z,9664.00
2022-08-10T11:46:30.351Z,9340.00
2022-08-10T11:47:30.346Z,9192.00
2022-08-10T11:48:54.546Z,9208.00
2022-08-10T11:49:30.323Z,9304.00
2022-08-10T11:50:30.305Z,9468.00
2022-08-10T11:51:30.308Z,9856.00
2022-08-10T11:52:30.285Z,10372.00
2022-08-10T11:53:35.214Z,11116.00
2022-08-10T11:54:30.274Z,11672.00
2022-08-10T11:55:30.266Z,12176.00
2022-08-10T11:56:30.251Z,12580.00
2022-08-10T11:57:52.937Z,12892.00
2022-08-10T11:58:31.259Z,13004.00
2022-08-10T11:59:30.214Z,13088.00
2022-08-10T12:00:32.619Z,13056.00
2022-08-10T12:01:30.196Z,13224.00
2022-08-10T12:02:30.246Z,13156.00
2022-08-10T12:03:34.419Z,13196.00
2022-08-10T12:04:30.166Z,13244.00
2022-08-10T12:05:54.447Z,13392.00
2022-08-10T12:06:54.049Z,13412.00
2022-08-10T12:10:03.935Z,13612.00
2022-08-10T12:10:04.170Z,13484.00
2022-08-10T12:10:07.521Z,13700.00
2022-08-10T12:10:31.117Z,13600.00
2022-08-10T12:11:30.089Z,13448.00
2022-08-10T12:12:30.078Z,13020.00
2022-08-10T12:13:30.066Z,12736.00
2022-08-10T12:14:30.050Z,12048.00
2022-08-10T12:15:30.040Z,11480.00
2022-08-10T12:16:30.026Z,11224.00
2022-08-10T12:17:30.013Z,10868.00
2022-08-10T12:18:30.001Z,10380.00
2022-08-10T12:19:29.992Z,9960.00
2022-08-10T12:20:29.981Z,9720.00
2022-08-10T12:21:29.976Z,9444.00